sensor_id;sensor_type;location;lat;lon;timestamp;temperature;humidity
19085;DHT22;9675;51.538;6.728;2024-01-15T00:01:10;2.40;99.90
19085;DHT22;9675;51.538;6.728;2024-01-15T00:03:37;2.40;99.90
19085;DHT22;9675;51.538;6.728;2024-01-15T00:06:05;2.40;99.90
19085;DHT22;9675;51.538;6.728;2024-01-15T00:08:32;2.40;99.90
19085;DHT22;9675;51.538;6.728;2024-01-15T00:10:59;2.40;99.90
19085;DHT22;9675;51.538;6.728;2024-01-15T00:13:26;2.40;99.90
19085;DHT22;9675;51.538;6.728;2024-01-15T00:15:53;2.40;99.90
19085;DHT22;9675;51.538;6.728;2024-01-15T00:18:22;2.40;99.90
19085;DHT22;9675;51.538;6.728;2024-01-15T00:20:49;2.40;99.90
19085;DHT22;9675;51.538;6.728;2024-01-15T00:23:16;2.30;99.90
19085;DHT22;9675;51.538;6.728;2024-01-15T00:25:43;2.40;99.90
19085;DHT22;9675;51.538;6.728;2024-01-15T00:28:10;2.40;99.90
19085;DHT22;9675;51.538;6.728;2024-01-15T00:30:37;2.40;99.90
19085;DHT22;9675;51.538;6.728;2024-01-15T00:33:04;2.40;99.90
19085;DHT22;9675;51.538;6.728;2024-01-15T00:35:33;2.40;99.90
19085;DHT22;9675;51.538;6.728;2024-01-15T00:38:00;2.40;99.90
19085;DHT22;9675;51.538;6.728;2024-01-15T00:40:27;2.40;99.90
19085;DHT22;9675;51.538;6.728;2024-01-15T00:42:54;2.40;99.90
19085;DHT22;9675;51.538;6.728;2024-01-15T00:45:21;2.40;99.90
19085;DHT22;9675;51.538;6.728;2024-01-15T00:47:48;2.40;99.90
19085;DHT22;9675;51.538;6.728;2024-01-15T00:50:15;2.40;99.90
19085;DHT22;9675;51.538;6.728;2024-01-15T00:52:44;2.40;99.90
19085;DHT22;9675;51.538;6.728;2024-01-15T00:55:11;2.40;99.90
19085;DHT22;9675;51.538;6.728;2024-01-15T00:57:38;2.40;99.90
19085;DHT22;9675;51.538;6.728;2024-01-15T01:00:06;2.40;99.90
19085;DHT22;9675;51.538;6.728;2024-01-15T01:02:34;2.40;99.90
19085;DHT22;9675;51.538;6.728;2024-01-15T01:05:01;2.40;99.90
19085;DHT22;9675;51.538;6.728;2024-01-15T01:07:28;2.40;99.90
19085;DHT22;9675;51.538;6.728;2024-01-15T01:09:57;2.40;99.90
19085;DHT22;9675;51.538;6.728;2024-01-15T01:12:24;2.40;99.90
19085;DHT22;9675;51.538;6.728;2024-01-15T01:14:51;2.40;99.90
19085;DHT22;9675;51.538;6.728;2024-01-15T01:17:18;2.40;99.90
19085;DHT22;9675;51.538;6.728;2024-01-15T01:19:45;2.40;99.90
19085;DHT22;9675;51.538;6.728;2024-01-15T01:22:12;2.40;99.90
19085;DHT22;9675;51.538;6.728;2024-01-15T01:24:39;2.40;99.90
19085;DHT22;9675;51.538;6.728;2024-01-15T01:27:07;2.40;99.90
19085;DHT22;9675;51.538;6.728;2024-01-15T01:29:35;2.40;99.90
19085;DHT22;9675;51.538;6.728;2024-01-15T01:32:02;2.40;99.90
19085;DHT22;9675;51.538;6.728;2024-01-15T01:34:29;2.30;99.90
19085;DHT22;9675;51.538;6.728;2024-01-15T01:36:56;2.40;99.90
19085;DHT22;9675;51.538;6.728;2024-01-15T01:39:23;2.40;99.90
19085;DHT22;9675;51.538;6.728;2024-01-15T01:41:50;2.40;99.90
19085;DHT22;9675;51.538;6.728;2024-01-15T01:44:19;2.40;99.90
19085;DHT22;9675;51.538;6.728;2024-01-15T01:46:46;2.40;99.90
19085;DHT22;9675;51.538;6.728;2024-01-15T01:49:13;2.40;99.90
19085;DHT22;9675;51.538;6.728;2024-01-15T01:51:40;2.40;99.90
19085;DHT22;9675;51.538;6.728;2024-01-15T01:54:08;2.30;99.90
19085;DHT22;9675;51.538;6.728;2024-01-15T01:56:38;2.40;99.90
19085;DHT22;9675;51.538;6.728;2024-01-15T01:59:06;2.40;99.90
19085;DHT22;9675;51.538;6.728;2024-01-15T02:01:38;2.40;99.90
19085;DHT22;9675;51.538;6.728;2024-01-15T02:04:06;2.40;99.90
19085;DHT22;9675;51.538;6.728;2024-01-15T02:06:33;2.40;99.90
19085;DHT22;9675;51.538;6.728;2024-01-15T02:09:01;2.40;99.90
19085;DHT22;9675;51.538;6.728;2024-01-15T02:11:28;2.40;99.90
19085;DHT22;9675;51.538;6.728;2024-01-15T02:13:55;2.40;99.90
19085;DHT22;9675;51.538;6.728;2024-01-15T02:16:22;2.40;99.90
19085;DHT22;9675;51.538;6.728;2024-01-15T02:18:51;2.40;99.90
19085;DHT22;9675;51.538;6.728;2024-01-15T02:21:18;2.40;99.90
19085;DHT22;9675;51.538;6.728;2024-01-15T02:23:46;2.40;99.90
19085;DHT22;9675;51.538;6.728;2024-01-15T02:26:14;2.40;99.90
19085;DHT22;9675;51.538;6.728;2024-01-15T02:28:41;2.40;99.90
19085;DHT22;9675;51.538;6.728;2024-01-15T02:31:10;2.40;99.90
19085;DHT22;9675;51.538;6.728;2024-01-15T02:33:37;2.40;99.90
19085;DHT22;9675;51.538;6.728;2024-01-15T02:36:04;2.40;99.90
19085;DHT22;9675;51.538;6.728;2024-01-15T02:38:31;2.40;99.90
19085;DHT22;9675;51.538;6.728;2024-01-15T02:41:00;2.40;99.90
19085;DHT22;9675;51.538;6.728;2024-01-15T02:43:27;2.40;99.90
19085;DHT22;9675;51.538;6.728;2024-01-15T02:45:54;2.40;99.90
19085;DHT22;9675;51.538;6.728;2024-01-15T02:48:21;2.40;99.90
19085;DHT22;9675;51.538;6.728;2024-01-15T02:50:48;2.40;99.90
19085;DHT22;9675;51.538;6.728;2024-01-15T02:53:15;2.40;99.90
19085;DHT22;9675;51.538;6.728;2024-01-15T02:55:42;2.40;99.90
19085;DHT22;9675;51.538;6.728;2024-01-15T02:58:10;2.40;99.90
19085;DHT22;9675;51.538;6.728;2024-01-15T03:00:37;2.30;99.90
19085;DHT22;9675;51.538;6.728;2024-01-15T03:03:04;2.40;99.90
19085;DHT22;9675;51.538;6.728;2024-01-15T03:05:31;2.40;99.90
19085;DHT22;9675;51.538;6.728;2024-01-15T03:07:59;2.40;99.90
19085;DHT22;9675;51.538;6.728;2024-01-15T03:10:26;2.40;99.90
19085;DHT22;9675;51.538;6.728;2024-01-15T03:12:53;2.40;99.90
19085;DHT22;9675;51.538;6.728;2024-01-15T03:15:21;2.40;99.90
19085;DHT22;9675;51.538;6.728;2024-01-15T03:17:48;2.40;99.90
19085;DHT22;9675;51.538;6.728;2024-01-15T03:20:15;2.40;99.90
19085;DHT22;9675;51.538;6.728;2024-01-15T03:22:42;2.40;99.90
19085;DHT22;9675;51.538;6.728;2024-01-15T03:25:09;2.40;99.90
19085;DHT22;9675;51.538;6.728;2024-01-15T03:27:36;2.40;99.90
19085;DHT22;9675;51.538;6.728;2024-01-15T03:30:04;2.40;99.90
19085;DHT22;9675;51.538;6.728;2024-01-15T03:32:33;2.40;99.90
19085;DHT22;9675;51.538;6.728;2024-01-15T03:35:00;2.40;99.90
19085;DHT22;9675;51.538;6.728;2024-01-15T03:37:27;2.40;99.90
19085;DHT22;9675;51.538;6.728;2024-01-15T03:39:54;2.30;99.90
19085;DHT22;9675;51.538;6.728;2024-01-15T03:42:22;2.30;99.90
19085;DHT22;9675;51.538;6.728;2024-01-15T03:44:49;2.30;99.90
19085;DHT22;9675;51.538;6.728;2024-01-15T03:47:16;2.40;99.90
19085;DHT22;9675;51.538;6.728;2024-01-15T03:49:44;2.40;99.90
19085;DHT22;9675;51.538;6.728;2024-01-15T03:52:11;2.30;99.90
19085;DHT22;9675;51.538;6.728;2024-01-15T03:54:38;2.40;99.90
19085;DHT22;9675;51.538;6.728;2024-01-15T03:57:05;2.40;99.90
19085;DHT22;9675;51.538;6.728;2024-01-15T03:59:32;2.40;99.90
19085;DHT22;9675;51.538;6.728;2024-01-15T04:01:59;2.40;99.90
19085;DHT22;9675;51.538;6.728;2024-01-15T04:04:26;2.40;99.90
19085;DHT22;9675;51.538;6.728;2024-01-15T04:06:54;2.40;99.90
19085;DHT22;9675;51.538;6.728;2024-01-15T04:09:21;2.40;99.90
19085;DHT22;9675;51.538;6.728;2024-01-15T04:11:48;2.40;99.90
19085;DHT22;9675;51.538;6.728;2024-01-15T04:14:15;2.40;99.90
19085;DHT22;9675;51.538;6.728;2024-01-15T04:16:42;2.30;99.90
19085;DHT22;9675;51.538;6.728;2024-01-15T04:19:09;2.30;99.90
19085;DHT22;9675;51.538;6.728;2024-01-15T04:21:36;2.30;99.90
19085;DHT22;9675;51.538;6.728;2024-01-15T04:24:05;2.30;99.90
19085;DHT22;9675;51.538;6.728;2024-01-15T04:26:33;2.30;99.90
19085;DHT22;9675;51.538;6.728;2024-01-15T04:29:00;2.30;99.90
19085;DHT22;9675;51.538;6.728;2024-01-15T04:31:27;2.30;99.90
19085;DHT22;9675;51.538;6.728;2024-01-15T04:33:54;2.30;99.90
19085;DHT22;9675;51.538;6.728;2024-01-15T04:36:21;2.30;99.90
19085;DHT22;9675;51.538;6.728;2024-01-15T04:38:48;2.30;99.90
19085;DHT22;9675;51.538;6.728;2024-01-15T04:41:16;2.30;99.90
19085;DHT22;9675;51.538;6.728;2024-01-15T04:43:44;2.30;99.90
19085;DHT22;9675;51.538;6.728;2024-01-15T04:46:11;2.30;99.90
19085;DHT22;9675;51.538;6.728;2024-01-15T04:48:38;2.30;99.90
19085;DHT22;9675;51.538;6.728;2024-01-15T04:51:05;2.30;99.90
19085;DHT22;9675;51.538;6.728;2024-01-15T04:53:35;2.30;99.90
19085;DHT22;9675;51.538;6.728;2024-01-15T04:56:02;2.30;99.90
19085;DHT22;9675;51.538;6.728;2024-01-15T04:58:31;2.30;99.90
19085;DHT22;9675;51.538;6.728;2024-01-15T05:00:58;2.30;99.90
19085;DHT22;9675;51.538;6.728;2024-01-15T05:03:25;2.30;99.90
19085;DHT22;9675;51.538;6.728;2024-01-15T05:05:52;2.20;99.90
19085;DHT22;9675;51.538;6.728;2024-01-15T05:08:19;2.20;99.90
19085;DHT22;9675;51.538;6.728;2024-01-15T05:10:47;2.20;99.90
19085;DHT22;9675;51.538;6.728;2024-01-15T05:13:14;2.30;99.90
19085;DHT22;9675;51.538;6.728;2024-01-15T05:15:42;2.30;99.90
19085;DHT22;9675;51.538;6.728;2024-01-15T05:18:09;2.30;99.90
19085;DHT22;9675;51.538;6.728;2024-01-15T05:20:36;2.30;99.90
19085;DHT22;9675;51.538;6.728;2024-01-15T05:23:03;2.30;99.90
19085;DHT22;9675;51.538;6.728;2024-01-15T05:25:30;2.30;99.90
19085;DHT22;9675;51.538;6.728;2024-01-15T05:27:57;2.30;99.90
19085;DHT22;9675;51.538;6.728;2024-01-15T05:30:24;2.20;99.90
19085;DHT22;9675;51.538;6.728;2024-01-15T05:32:53;2.30;99.90
19085;DHT22;9675;51.538;6.728;2024-01-15T05:35:20;2.30;99.90
19085;DHT22;9675;51.538;6.728;2024-01-15T05:37:47;2.30;99.90
19085;DHT22;9675;51.538;6.728;2024-01-15T05:40:14;2.20;99.90
19085;DHT22;9675;51.538;6.728;2024-01-15T05:42:41;2.20;99.90
19085;DHT22;9675;51.538;6.728;2024-01-15T05:45:08;2.20;99.90
19085;DHT22;9675;51.538;6.728;2024-01-15T05:47:36;2.20;99.90
19085;DHT22;9675;51.538;6.728;2024-01-15T05:50:05;2.20;99.90
19085;DHT22;9675;51.538;6.728;2024-01-15T05:52:32;2.30;99.90
19085;DHT22;9675;51.538;6.728;2024-01-15T05:54:59;2.30;99.90
19085;DHT22;9675;51.538;6.728;2024-01-15T05:57:26;2.30;99.90
19085;DHT22;9675;51.538;6.728;2024-01-15T05:59:54;2.20;99.90
19085;DHT22;9675;51.538;6.728;2024-01-15T06:02:21;2.20;99.90
19085;DHT22;9675;51.538;6.728;2024-01-15T06:04:48;2.20;99.90
19085;DHT22;9675;51.538;6.728;2024-01-15T06:07:16;2.20;99.90
19085;DHT22;9675;51.538;6.728;2024-01-15T06:09:43;2.20;99.90
19085;DHT22;9675;51.538;6.728;2024-01-15T06:12:10;2.20;99.90
19085;DHT22;9675;51.538;6.728;2024-01-15T06:14:38;2.20;99.90
19085;DHT22;9675;51.538;6.728;2024-01-15T06:17:05;2.20;99.90
19085;DHT22;9675;51.538;6.728;2024-01-15T06:19:32;2.20;99.90
19085;DHT22;9675;51.538;6.728;2024-01-15T06:21:59;2.20;99.90
19085;DHT22;9675;51.538;6.728;2024-01-15T06:24:27;2.20;99.90
19085;DHT22;9675;51.538;6.728;2024-01-15T06:26:54;2.30;99.90
19085;DHT22;9675;51.538;6.728;2024-01-15T06:29:21;2.30;99.90
19085;DHT22;9675;51.538;6.728;2024-01-15T06:31:49;2.30;99.90
19085;DHT22;9675;51.538;6.728;2024-01-15T06:34:16;2.30;99.90
19085;DHT22;9675;51.538;6.728;2024-01-15T06:36:43;2.30;99.90
19085;DHT22;9675;51.538;6.728;2024-01-15T06:39:11;2.30;99.90
19085;DHT22;9675;51.538;6.728;2024-01-15T06:41:39;2.30;99.90
19085;DHT22;9675;51.538;6.728;2024-01-15T06:44:08;2.30;99.90
19085;DHT22;9675;51.538;6.728;2024-01-15T06:46:36;2.30;99.90
19085;DHT22;9675;51.538;6.728;2024-01-15T06:49:03;2.30;99.90
19085;DHT22;9675;51.538;6.728;2024-01-15T06:51:30;2.30;99.90
19085;DHT22;9675;51.538;6.728;2024-01-15T06:53:57;2.30;99.90
19085;DHT22;9675;51.538;6.728;2024-01-15T06:56:24;2.30;99.90
19085;DHT22;9675;51.538;6.728;2024-01-15T06:58:53;2.30;99.90
19085;DHT22;9675;51.538;6.728;2024-01-15T07:01:20;2.30;99.90
19085;DHT22;9675;51.538;6.728;2024-01-15T07:03:47;2.30;99.90
19085;DHT22;9675;51.538;6.728;2024-01-15T07:06:14;2.30;99.90
19085;DHT22;9675;51.538;6.728;2024-01-15T07:08:41;2.30;99.90
19085;DHT22;9675;51.538;6.728;2024-01-15T07:11:09;2.30;99.90
19085;DHT22;9675;51.538;6.728;2024-01-15T07:13:36;2.30;99.90
19085;DHT22;9675;51.538;6.728;2024-01-15T07:16:05;2.30;99.90
19085;DHT22;9675;51.538;6.728;2024-01-15T07:18:32;2.30;99.90
19085;DHT22;9675;51.538;6.728;2024-01-15T07:20:59;2.30;99.90
19085;DHT22;9675;51.538;6.728;2024-01-15T07:23:28;2.30;99.90
19085;DHT22;9675;51.538;6.728;2024-01-15T07:25:55;2.30;99.90
19085;DHT22;9675;51.538;6.728;2024-01-15T07:28:22;2.40;99.90
19085;DHT22;9675;51.538;6.728;2024-01-15T07:30:49;2.30;99.90
19085;DHT22;9675;51.538;6.728;2024-01-15T07:33:19;2.30;99.90
19085;DHT22;9675;51.538;6.728;2024-01-15T07:35:46;2.30;99.90
19085;DHT22;9675;51.538;6.728;2024-01-15T07:38:13;2.30;99.90
19085;DHT22;9675;51.538;6.728;2024-01-15T07:40:40;2.30;99.90
19085;DHT22;9675;51.538;6.728;2024-01-15T07:43:07;2.30;99.90
19085;DHT22;9675;51.538;6.728;2024-01-15T07:45:34;2.30;99.90
19085;DHT22;9675;51.538;6.728;2024-01-15T07:48:01;2.30;99.90
19085;DHT22;9675;51.538;6.728;2024-01-15T07:50:30;2.40;99.90
19085;DHT22;9675;51.538;6.728;2024-01-15T07:52:57;2.30;99.90
19085;DHT22;9675;51.538;6.728;2024-01-15T07:55:24;2.30;99.90
19085;DHT22;9675;51.538;6.728;2024-01-15T07:57:52;2.30;99.90
19085;DHT22;9675;51.538;6.728;2024-01-15T08:00:24;2.30;99.90
19085;DHT22;9675;51.538;6.728;2024-01-15T08:02:51;2.30;99.90
19085;DHT22;9675;51.538;6.728;2024-01-15T08:05:18;2.30;99.90
19085;DHT22;9675;51.538;6.728;2024-01-15T08:07:47;2.30;99.90
19085;DHT22;9675;51.538;6.728;2024-01-15T08:10:14;2.30;99.90
19085;DHT22;9675;51.538;6.728;2024-01-15T08:12:42;2.40;99.90
19085;DHT22;9675;51.538;6.728;2024-01-15T08:15:09;2.30;99.90
19085;DHT22;9675;51.538;6.728;2024-01-15T08:17:36;2.40;99.90
19085;DHT22;9675;51.538;6.728;2024-01-15T08:20:04;2.40;99.90
19085;DHT22;9675;51.538;6.728;2024-01-15T08:22:31;2.40;99.90
19085;DHT22;9675;51.538;6.728;2024-01-15T08:24:59;2.40;99.90
19085;DHT22;9675;51.538;6.728;2024-01-15T08:27:26;2.40;99.90
19085;DHT22;9675;51.538;6.728;2024-01-15T08:29:53;2.40;99.90
19085;DHT22;9675;51.538;6.728;2024-01-15T08:32:21;2.40;99.90
19085;DHT22;9675;51.538;6.728;2024-01-15T08:34:48;2.40;99.90
19085;DHT22;9675;51.538;6.728;2024-01-15T08:37:17;2.40;99.90
19085;DHT22;9675;51.538;6.728;2024-01-15T08:39:44;2.40;99.90
19085;DHT22;9675;51.538;6.728;2024-01-15T08:42:13;2.40;99.90
19085;DHT22;9675;51.538;6.728;2024-01-15T08:44:40;2.40;99.90
19085;DHT22;9675;51.538;6.728;2024-01-15T08:47:09;2.40;99.90
19085;DHT22;9675;51.538;6.728;2024-01-15T08:49:36;2.40;99.90
19085;DHT22;9675;51.538;6.728;2024-01-15T08:52:03;2.40;99.90
19085;DHT22;9675;51.538;6.728;2024-01-15T08:54:30;2.40;99.90
19085;DHT22;9675;51.538;6.728;2024-01-15T08:56:57;2.40;99.90
19085;DHT22;9675;51.538;6.728;2024-01-15T08:59:26;2.40;99.90
19085;DHT22;9675;51.538;6.728;2024-01-15T09:01:54;2.40;99.90
19085;DHT22;9675;51.538;6.728;2024-01-15T09:04:22;2.30;99.90
19085;DHT22;9675;51.538;6.728;2024-01-15T09:06:50;2.30;99.90
19085;DHT22;9675;51.538;6.728;2024-01-15T09:09:17;2.40;99.90
19085;DHT22;9675;51.538;6.728;2024-01-15T09:11:45;2.40;99.90
19085;DHT22;9675;51.538;6.728;2024-01-15T09:14:13;2.40;99.90
19085;DHT22;9675;51.538;6.728;2024-01-15T09:16:41;2.30;99.90
19085;DHT22;9675;51.538;6.728;2024-01-15T09:19:08;2.40;99.90
19085;DHT22;9675;51.538;6.728;2024-01-15T09:21:35;2.30;99.90
19085;DHT22;9675;51.538;6.728;2024-01-15T09:24:05;2.30;99.90
19085;DHT22;9675;51.538;6.728;2024-01-15T09:26:32;2.30;99.90
19085;DHT22;9675;51.538;6.728;2024-01-15T09:28:59;2.40;99.90
19085;DHT22;9675;51.538;6.728;2024-01-15T09:31:28;2.30;99.90
19085;DHT22;9675;51.538;6.728;2024-01-15T09:33:56;2.30;99.90
19085;DHT22;9675;51.538;6.728;2024-01-15T09:36:25;2.30;99.90
19085;DHT22;9675;51.538;6.728;2024-01-15T09:38:52;2.30;99.90
19085;DHT22;9675;51.538;6.728;2024-01-15T09:41:20;2.30;99.90
19085;DHT22;9675;51.538;6.728;2024-01-15T09:43:47;2.30;99.90
19085;DHT22;9675;51.538;6.728;2024-01-15T09:46:15;2.30;99.90
19085;DHT22;9675;51.538;6.728;2024-01-15T09:48:43;2.30;99.90
19085;DHT22;9675;51.538;6.728;2024-01-15T09:51:11;2.30;99.90
19085;DHT22;9675;51.538;6.728;2024-01-15T09:53:39;2.30;99.90
19085;DHT22;9675;51.538;6.728;2024-01-15T09:56:08;2.30;99.90
19085;DHT22;9675;51.538;6.728;2024-01-15T09:58:38;2.30;99.90
19085;DHT22;9675;51.538;6.728;2024-01-15T10:01:08;2.30;99.90
19085;DHT22;9675;51.538;6.728;2024-01-15T10:03:35;2.30;99.90
19085;DHT22;9675;51.538;6.728;2024-01-15T10:06:03;2.30;99.90
19085;DHT22;9675;51.538;6.728;2024-01-15T10:08:35;2.40;99.90
19085;DHT22;9675;51.538;6.728;2024-01-15T10:11:04;2.40;99.90
19085;DHT22;9675;51.538;6.728;2024-01-15T10:13:32;2.40;99.90
19085;DHT22;9675;51.538;6.728;2024-01-15T10:16:01;2.40;99.90
19085;DHT22;9675;51.538;6.728;2024-01-15T10:18:28;2.40;99.90
19085;DHT22;9675;51.538;6.728;2024-01-15T10:20:56;2.30;99.90
19085;DHT22;9675;51.538;6.728;2024-01-15T10:23:24;2.40;99.90
19085;DHT22;9675;51.538;6.728;2024-01-15T10:25:52;2.40;99.90
19085;DHT22;9675;51.538;6.728;2024-01-15T10:28:19;2.40;99.90
19085;DHT22;9675;51.538;6.728;2024-01-15T10:30:47;2.40;99.90
19085;DHT22;9675;51.538;6.728;2024-01-15T10:33:22;2.40;99.90
19085;DHT22;9675;51.538;6.728;2024-01-15T10:35:53;2.40;99.90
19085;DHT22;9675;51.538;6.728;2024-01-15T10:38:21;2.40;99.90
19085;DHT22;9675;51.538;6.728;2024-01-15T10:40:53;2.40;99.90
19085;DHT22;9675;51.538;6.728;2024-01-15T10:43:21;2.40;99.90
19085;DHT22;9675;51.538;6.728;2024-01-15T10:45:50;2.40;99.90
19085;DHT22;9675;51.538;6.728;2024-01-15T10:48:18;2.40;99.90
19085;DHT22;9675;51.538;6.728;2024-01-15T10:50:47;2.40;99.90
19085;DHT22;9675;51.538;6.728;2024-01-15T10:53:16;2.40;99.90
19085;DHT22;9675;51.538;6.728;2024-01-15T10:55:44;2.40;99.90
19085;DHT22;9675;51.538;6.728;2024-01-15T10:58:16;2.40;99.90
19085;DHT22;9675;51.538;6.728;2024-01-15T11:00:45;2.40;99.90
19085;DHT22;9675;51.538;6.728;2024-01-15T11:03:13;2.50;99.90
19085;DHT22;9675;51.538;6.728;2024-01-15T11:05:42;2.50;99.90
19085;DHT22;9675;51.538;6.728;2024-01-15T11:08:10;2.50;99.90
19085;DHT22;9675;51.538;6.728;2024-01-15T11:10:38;2.50;99.90
19085;DHT22;9675;51.538;6.728;2024-01-15T11:13:09;2.50;99.90
19085;DHT22;9675;51.538;6.728;2024-01-15T11:15:56;2.50;99.90
19085;DHT22;9675;51.538;6.728;2024-01-15T11:18:26;2.50;99.90
19085;DHT22;9675;51.538;6.728;2024-01-15T11:21:25;2.50;99.90
19085;DHT22;9675;51.538;6.728;2024-01-15T11:23:54;2.50;99.90
19085;DHT22;9675;51.538;6.728;2024-01-15T11:26:31;2.60;99.90
19085;DHT22;9675;51.538;6.728;2024-01-15T11:29:01;2.60;99.90
19085;DHT22;9675;51.538;6.728;2024-01-15T11:32:01;2.60;99.90
19085;DHT22;9675;51.538;6.728;2024-01-15T11:34:50;2.60;99.90
19085;DHT22;9675;51.538;6.728;2024-01-15T11:37:20;2.60;99.90
19085;DHT22;9675;51.538;6.728;2024-01-15T11:39:51;2.60;99.90
19085;DHT22;9675;51.538;6.728;2024-01-15T11:42:21;2.60;99.90
19085;DHT22;9675;51.538;6.728;2024-01-15T11:44:49;2.60;99.90
19085;DHT22;9675;51.538;6.728;2024-01-15T11:47:42;2.60;99.90
19085;DHT22;9675;51.538;6.728;2024-01-15T11:50:30;2.60;99.90
19085;DHT22;9675;51.538;6.728;2024-01-15T11:53:00;2.60;99.90
19085;DHT22;9675;51.538;6.728;2024-01-15T11:55:33;2.70;99.90
19085;DHT22;9675;51.538;6.728;2024-01-15T11:58:01;2.70;99.90
19085;DHT22;9675;51.538;6.728;2024-01-15T12:00:34;2.70;99.90
19085;DHT22;9675;51.538;6.728;2024-01-15T12:03:05;2.70;99.90
19085;DHT22;9675;51.538;6.728;2024-01-15T12:05:32;2.70;99.90
19085;DHT22;9675;51.538;6.728;2024-01-15T12:07:59;2.70;99.90
19085;DHT22;9675;51.538;6.728;2024-01-15T12:10:26;2.70;99.90
19085;DHT22;9675;51.538;6.728;2024-01-15T12:12:57;2.70;99.90
19085;DHT22;9675;51.538;6.728;2024-01-15T12:15:26;2.80;99.90
19085;DHT22;9675;51.538;6.728;2024-01-15T12:17:55;2.90;99.90
19085;DHT22;9675;51.538;6.728;2024-01-15T12:20:26;2.90;99.90
19085;DHT22;9675;51.538;6.728;2024-01-15T12:22:53;2.90;99.90
19085;DHT22;9675;51.538;6.728;2024-01-15T12:25:21;2.90;99.90
19085;DHT22;9675;51.538;6.728;2024-01-15T12:27:50;3.00;99.90
19085;DHT22;9675;51.538;6.728;2024-01-15T12:30:17;3.00;99.90
19085;DHT22;9675;51.538;6.728;2024-01-15T12:32:45;3.00;99.90
19085;DHT22;9675;51.538;6.728;2024-01-15T12:35:13;3.10;99.90
19085;DHT22;9675;51.538;6.728;2024-01-15T12:37:43;3.00;99.90
19085;DHT22;9675;51.538;6.728;2024-01-15T12:40:12;3.10;99.90
19085;DHT22;9675;51.538;6.728;2024-01-15T12:42:40;3.10;99.90
19085;DHT22;9675;51.538;6.728;2024-01-15T12:45:09;3.10;99.90
19085;DHT22;9675;51.538;6.728;2024-01-15T12:47:38;3.10;99.90
19085;DHT22;9675;51.538;6.728;2024-01-15T12:50:06;3.10;99.90
19085;DHT22;9675;51.538;6.728;2024-01-15T12:52:34;3.10;99.90
19085;DHT22;9675;51.538;6.728;2024-01-15T12:55:06;3.10;99.90
19085;DHT22;9675;51.538;6.728;2024-01-15T12:57:34;3.10;99.90
19085;DHT22;9675;51.538;6.728;2024-01-15T13:00:03;3.20;99.90
19085;DHT22;9675;51.538;6.728;2024-01-15T13:02:32;3.20;99.90
19085;DHT22;9675;51.538;6.728;2024-01-15T13:04:59;3.20;99.90
19085;DHT22;9675;51.538;6.728;2024-01-15T13:07:27;3.20;99.90
19085;DHT22;9675;51.538;6.728;2024-01-15T13:09:54;3.20;99.90
19085;DHT22;9675;51.538;6.728;2024-01-15T13:12:23;3.20;99.90
19085;DHT22;9675;51.538;6.728;2024-01-15T13:14:50;3.20;99.90
19085;DHT22;9675;51.538;6.728;2024-01-15T13:17:17;3.20;99.90
19085;DHT22;9675;51.538;6.728;2024-01-15T13:19:46;3.20;99.90
19085;DHT22;9675;51.538;6.728;2024-01-15T13:22:14;3.20;99.90
19085;DHT22;9675;51.538;6.728;2024-01-15T13:24:41;3.20;99.90
19085;DHT22;9675;51.538;6.728;2024-01-15T13:27:09;3.20;99.90
19085;DHT22;9675;51.538;6.728;2024-01-15T13:29:37;3.30;99.90
19085;DHT22;9675;51.538;6.728;2024-01-15T13:32:04;3.30;99.90
19085;DHT22;9675;51.538;6.728;2024-01-15T13:34:31;3.30;99.90
19085;DHT22;9675;51.538;6.728;2024-01-15T13:36:58;3.30;99.90
19085;DHT22;9675;51.538;6.728;2024-01-15T13:39:26;3.30;99.90
19085;DHT22;9675;51.538;6.728;2024-01-15T13:41:53;3.30;99.90
19085;DHT22;9675;51.538;6.728;2024-01-15T13:44:20;3.30;99.90
19085;DHT22;9675;51.538;6.728;2024-01-15T13:46:48;3.30;99.90
19085;DHT22;9675;51.538;6.728;2024-01-15T13:49:15;3.30;99.90
19085;DHT22;9675;51.538;6.728;2024-01-15T13:51:42;3.40;99.90
19085;DHT22;9675;51.538;6.728;2024-01-15T13:54:09;3.30;99.90
19085;DHT22;9675;51.538;6.728;2024-01-15T13:56:36;3.30;99.90
19085;DHT22;9675;51.538;6.728;2024-01-15T13:59:03;3.30;99.90
19085;DHT22;9675;51.538;6.728;2024-01-15T14:01:31;3.30;99.90
19085;DHT22;9675;51.538;6.728;2024-01-15T14:04:00;3.30;99.90
19085;DHT22;9675;51.538;6.728;2024-01-15T14:06:27;3.30;99.90
19085;DHT22;9675;51.538;6.728;2024-01-15T14:08:54;3.40;99.90
19085;DHT22;9675;51.538;6.728;2024-01-15T14:11:21;3.30;99.90
19085;DHT22;9675;51.538;6.728;2024-01-15T14:13:48;3.30;99.90
19085;DHT22;9675;51.538;6.728;2024-01-15T14:16:15;3.30;99.90
19085;DHT22;9675;51.538;6.728;2024-01-15T14:18:42;3.30;99.90
19085;DHT22;9675;51.538;6.728;2024-01-15T14:21:10;3.30;99.90
19085;DHT22;9675;51.538;6.728;2024-01-15T14:23:37;3.40;99.90
19085;DHT22;9675;51.538;6.728;2024-01-15T14:26:05;3.30;99.90
19085;DHT22;9675;51.538;6.728;2024-01-15T14:28:32;3.30;99.90
19085;DHT22;9675;51.538;6.728;2024-01-15T14:30:59;3.30;99.90
19085;DHT22;9675;51.538;6.728;2024-01-15T14:33:26;3.30;99.90
19085;DHT22;9675;51.538;6.728;2024-01-15T14:35:53;3.30;99.90
19085;DHT22;9675;51.538;6.728;2024-01-15T14:38:21;3.30;99.90
19085;DHT22;9675;51.538;6.728;2024-01-15T14:40:49;3.30;99.90
19085;DHT22;9675;51.538;6.728;2024-01-15T14:43:16;3.30;99.90
19085;DHT22;9675;51.538;6.728;2024-01-15T14:45:43;3.30;99.90
19085;DHT22;9675;51.538;6.728;2024-01-15T14:48:11;3.30;99.90
19085;DHT22;9675;51.538;6.728;2024-01-15T14:50:39;3.30;99.90
19085;DHT22;9675;51.538;6.728;2024-01-15T14:53:06;3.30;99.90
19085;DHT22;9675;51.538;6.728;2024-01-15T14:55:35;3.30;99.90
19085;DHT22;9675;51.538;6.728;2024-01-15T14:58:02;3.30;99.90
19085;DHT22;9675;51.538;6.728;2024-01-15T15:00:29;3.30;99.90
19085;DHT22;9675;51.538;6.728;2024-01-15T15:02:56;3.30;99.90
19085;DHT22;9675;51.538;6.728;2024-01-15T15:05:24;3.30;99.90
19085;DHT22;9675;51.538;6.728;2024-01-15T15:07:52;3.30;99.90
19085;DHT22;9675;51.538;6.728;2024-01-15T15:10:19;3.30;99.90
19085;DHT22;9675;51.538;6.728;2024-01-15T15:12:47;3.30;99.90
19085;DHT22;9675;51.538;6.728;2024-01-15T15:15:14;3.20;99.90
19085;DHT22;9675;51.538;6.728;2024-01-15T15:17:42;3.20;99.90
19085;DHT22;9675;51.538;6.728;2024-01-15T15:20:10;3.20;99.90
19085;DHT22;9675;51.538;6.728;2024-01-15T15:22:38;3.20;99.90
19085;DHT22;9675;51.538;6.728;2024-01-15T15:25:05;3.20;99.90
19085;DHT22;9675;51.538;6.728;2024-01-15T15:27:34;3.20;99.90
19085;DHT22;9675;51.538;6.728;2024-01-15T15:30:03;3.20;99.90
19085;DHT22;9675;51.538;6.728;2024-01-15T15:32:32;3.20;99.90
19085;DHT22;9675;51.538;6.728;2024-01-15T15:34:59;3.20;99.90
19085;DHT22;9675;51.538;6.728;2024-01-15T15:37:26;3.10;99.90
19085;DHT22;9675;51.538;6.728;2024-01-15T15:39:55;3.10;99.90
19085;DHT22;9675;51.538;6.728;2024-01-15T15:42:23;3.10;99.90
19085;DHT22;9675;51.538;6.728;2024-01-15T15:44:50;3.10;99.90
19085;DHT22;9675;51.538;6.728;2024-01-15T15:47:20;3.20;99.90
19085;DHT22;9675;51.538;6.728;2024-01-15T15:49:47;3.10;99.90
19085;DHT22;9675;51.538;6.728;2024-01-15T15:52:14;3.10;99.90
19085;DHT22;9675;51.538;6.728;2024-01-15T15:54:41;3.10;99.90
19085;DHT22;9675;51.538;6.728;2024-01-15T15:57:08;3.10;99.90
19085;DHT22;9675;51.538;6.728;2024-01-15T15:59:36;3.00;99.90
19085;DHT22;9675;51.538;6.728;2024-01-15T16:02:03;3.00;99.90
19085;DHT22;9675;51.538;6.728;2024-01-15T16:04:31;3.00;99.90
19085;DHT22;9675;51.538;6.728;2024-01-15T16:06:58;3.00;99.90